createdAt,value
2023-05-18T00:01:14.915Z,29.36
2023-05-18T00:03:42.150Z,29.06
2023-05-18T00:06:10.507Z,29.14
2023-05-18T00:08:38.673Z,28.70
2023-05-18T00:11:06.374Z,28.65
2023-05-18T00:13:33.483Z,28.82
2023-05-18T00:16:00.884Z,28.51
2023-05-18T00:18:28.249Z,28.59
2023-05-18T00:21:01.824Z,28.76
2023-05-18T00:23:30.702Z,28.20
2023-05-18T00:25:58.565Z,28.50
2023-05-18T00:28:25.965Z,28.14
2023-05-18T00:30:53.657Z,28.18
2023-05-18T00:33:21.116Z,28.28
2023-05-18T00:35:47.717Z,28.34
2023-05-18T00:38:17.609Z,28.68
2023-05-18T00:40:44.292Z,28.30
2023-05-18T00:43:11.808Z,28.40
2023-05-18T00:45:39.228Z,28.03
2023-05-18T00:48:06.683Z,27.96
2023-05-18T00:50:33.455Z,28.73
2023-05-18T00:53:00.513Z,28.26
2023-05-18T00:55:28.723Z,28.54
2023-05-18T00:58:02.263Z,28.71
2023-05-18T01:00:29.559Z,28.26
2023-05-18T01:02:57.269Z,28.45
2023-05-18T01:05:24.173Z,28.02
2023-05-18T01:07:50.796Z,28.10
2023-05-18T01:10:19.517Z,28.50
2023-05-18T01:12:53.330Z,28.44
2023-05-18T01:15:36.427Z,28.52
2023-05-18T01:18:17.037Z,29.40
2023-05-18T01:20:47.483Z,29.23
2023-05-18T01:23:41.740Z,29.26
2023-05-18T01:26:29.982Z,29.26
2023-05-18T01:28:59.998Z,29.41
2023-05-18T01:31:30.404Z,28.93
2023-05-18T01:33:57.474Z,29.18
2023-05-18T01:36:24.102Z,29.24
2023-05-18T01:38:52.649Z,28.93
2023-05-18T01:41:23.580Z,29.04
2023-05-18T01:44:02.598Z,29.29
2023-05-18T01:46:47.531Z,29.35
2023-05-18T01:49:32.840Z,29.30
2023-05-18T01:52:06.463Z,29.20
2023-05-18T01:54:36.470Z,29.17
2023-05-18T01:57:07.668Z,29.43
2023-05-18T01:59:35.638Z,29.41
2023-05-18T02:02:03.407Z,29.17
2023-05-18T02:04:30.931Z,29.60
2023-05-18T02:06:57.754Z,29.21
2023-05-18T02:09:24.818Z,29.77
2023-05-18T02:11:51.520Z,29.45
2023-05-18T02:14:18.266Z,29.74
2023-05-18T02:16:47.642Z,30.36
2023-05-18T02:19:14.865Z,30.49
2023-05-18T02:21:43.563Z,30.11
2023-05-18T02:24:10.621Z,29.63
2023-05-18T02:26:37.647Z,29.70
2023-05-18T02:29:06.378Z,29.75
2023-05-18T02:31:33.102Z,29.86
2023-05-18T02:34:01.477Z,29.93
2023-05-18T02:36:28.218Z,29.82
2023-05-18T02:38:54.995Z,29.27
2023-05-18T02:41:22.692Z,29.49
2023-05-18T02:43:49.277Z,29.67
2023-05-18T02:46:16.254Z,30.10
2023-05-18T02:48:45.671Z,29.77
2023-05-18T02:51:12.569Z,29.87
2023-05-18T02:53:40.384Z,29.68
2023-05-18T02:56:12.265Z,29.60
2023-05-18T02:58:48.723Z,29.84
2023-05-18T03:01:22.070Z,29.93
2023-05-18T03:03:53.356Z,29.74
2023-05-18T03:06:23.582Z,30.12
2023-05-18T03:08:51.226Z,30.10
2023-05-18T03:11:17.884Z,29.97
2023-05-18T03:13:44.645Z,30.15
2023-05-18T03:16:11.396Z,29.97
2023-05-18T03:18:38.261Z,30.16
2023-05-18T03:21:05.459Z,30.32
2023-05-18T03:23:32.439Z,30.10
2023-05-18T03:25:59.095Z,30.21
2023-05-18T03:28:29.173Z,29.93
2023-05-18T03:30:55.779Z,30.28
2023-05-18T03:33:22.507Z,30.28
2023-05-18T03:35:49.998Z,29.96
2023-05-18T03:38:16.595Z,30.02
2023-05-18T03:40:48.659Z,29.95
2023-05-18T03:43:15.400Z,30.29
2023-05-18T03:45:43.470Z,29.98
2023-05-18T03:48:10.177Z,30.44
2023-05-18T03:50:37.078Z,30.07
2023-05-18T03:53:04.043Z,30.21
2023-05-18T03:55:30.827Z,30.35
2023-05-18T03:57:59.153Z,29.79
2023-05-18T04:00:25.821Z,30.09
2023-05-18T04:02:52.735Z,29.91
2023-05-18T04:05:23.424Z,30.12
2023-05-18T04:07:50.299Z,30.07
2023-05-18T04:10:19.523Z,30.07
2023-05-18T04:12:46.335Z,30.16
2023-05-18T04:15:14.571Z,30.11
2023-05-18T04:17:45.653Z,30.34
2023-05-18T04:20:17.272Z,30.15
2023-05-18T04:22:48.067Z,30.35
2023-05-18T04:25:15.805Z,30.45
2023-05-18T04:27:43.689Z,30.24
2023-05-18T04:30:11.504Z,30.12
2023-05-18T04:32:42.848Z,29.95
2023-05-18T04:35:13.041Z,29.94
2023-05-18T04:37:40.363Z,29.81
2023-05-18T04:40:14.113Z,29.93
2023-05-18T04:42:48.502Z,29.94
2023-05-18T04:45:26.953Z,30.12
2023-05-18T04:47:56.234Z,29.82
2023-05-18T04:50:25.786Z,29.35
2023-05-18T04:52:53.228Z,29.20
2023-05-18T04:55:29.471Z,29.58
2023-05-18T04:58:00.458Z,29.31
2023-05-18T05:00:29.579Z,29.03
2023-05-18T05:02:57.414Z,29.65
2023-05-18T05:05:25.929Z,29.71
2023-05-18T05:07:54.278Z,29.75
2023-05-18T05:10:21.621Z,30.11
2023-05-18T05:12:50.468Z,29.69
2023-05-18T05:15:18.044Z,29.74
2023-05-18T05:17:47.051Z,29.14
2023-05-18T05:20:13.810Z,29.05
2023-05-18T05:22:40.525Z,30.28
2023-05-18T05:25:10.340Z,29.84
2023-05-18T05:27:37.933Z,30.64
2023-05-18T05:30:06.008Z,30.33
2023-05-18T05:32:36.147Z,30.38
2023-05-18T05:35:03.714Z,29.95
2023-05-18T05:37:31.685Z,29.78
2023-05-18T05:39:59.317Z,29.70
2023-05-18T05:42:27.694Z,29.78
2023-05-18T05:44:54.585Z,30.05
2023-05-18T05:47:22.332Z,30.02
2023-05-18T05:49:49.305Z,29.68
2023-05-18T05:52:16.433Z,30.03
2023-05-18T05:54:43.533Z,31.06
2023-05-18T05:57:11.306Z,30.83
2023-05-18T05:59:38.660Z,31.09
2023-05-18T06:02:05.424Z,31.46
2023-05-18T06:04:32.488Z,30.88
2023-05-18T06:07:02.382Z,30.72
2023-05-18T06:09:29.148Z,30.08
2023-05-18T06:11:58.185Z,29.38
2023-05-18T06:14:26.654Z,29.10
2023-05-18T06:16:55.373Z,28.75
2023-05-18T06:19:22.044Z,28.73
2023-05-18T06:21:49.493Z,27.87
2023-05-18T06:24:16.807Z,27.62
2023-05-18T06:26:53.158Z,27.67
2023-05-18T06:29:38.213Z,27.32
2023-05-18T06:32:39.820Z,27.97
2023-05-18T06:35:07.404Z,27.18
2023-05-18T06:37:34.226Z,26.00
2023-05-18T06:40:01.142Z,25.27
2023-05-18T06:42:29.994Z,24.65
2023-05-18T06:45:22.572Z,23.48
2023-05-18T06:47:53.065Z,21.37
2023-05-18T06:50:19.777Z,20.79
2023-05-18T06:52:47.535Z,19.73
2023-05-18T06:55:15.338Z,19.08
2023-05-18T06:57:42.259Z,19.59
2023-05-18T07:00:10.402Z,18.70
2023-05-18T07:02:37.216Z,18.29
2023-05-18T07:05:06.578Z,16.60
2023-05-18T07:07:33.155Z,16.49
2023-05-18T07:09:59.837Z,18.22
2023-05-18T07:12:27.332Z,18.04
2023-05-18T07:14:53.971Z,17.71
2023-05-18T07:17:20.625Z,17.48
2023-05-18T07:19:47.196Z,17.30
2023-05-18T07:22:13.976Z,17.93
2023-05-18T07:24:41.176Z,17.99
2023-05-18T07:27:07.844Z,18.48
2023-05-18T07:29:35.083Z,17.78
2023-05-18T07:32:02.557Z,18.19
2023-05-18T07:34:29.253Z,18.89
2023-05-18T07:36:56.060Z,18.80
2023-05-18T07:39:28.428Z,19.12
2023-05-18T07:41:56.330Z,19.83
2023-05-18T07:44:22.942Z,19.09
2023-05-18T07:46:49.662Z,18.83
2023-05-18T07:49:16.371Z,19.56
2023-05-18T07:51:43.003Z,19.63
2023-05-18T07:54:10.263Z,20.74
2023-05-18T07:56:36.890Z,21.08
2023-05-18T07:59:03.499Z,21.25
2023-05-18T08:01:30.357Z,20.80
2023-05-18T08:03:57.063Z,21.14
2023-05-18T08:06:24.071Z,20.87
2023-05-18T08:08:50.762Z,21.13
2023-05-18T08:11:17.519Z,20.13
2023-05-18T08:13:44.133Z,20.00
2023-05-18T08:16:12.095Z,21.22
2023-05-18T08:18:39.726Z,20.95
2023-05-18T08:21:09.405Z,21.50
2023-05-18T08:23:36.791Z,20.97
2023-05-18T08:26:03.634Z,20.34
2023-05-18T08:28:31.380Z,21.62
2023-05-18T08:30:58.257Z,20.65
2023-05-18T08:33:24.847Z,20.84
2023-05-18T08:35:51.871Z,20.99
2023-05-18T08:38:18.454Z,21.31
2023-05-18T08:41:16.717Z,21.82
2023-05-18T08:43:46.878Z,21.08
2023-05-18T08:46:16.942Z,20.10
2023-05-18T08:48:46.609Z,20.77
2023-05-18T08:51:19.657Z,19.45
2023-05-18T08:53:52.365Z,20.54
2023-05-18T08:56:22.935Z,20.35
2023-05-18T08:58:51.533Z,20.73
2023-05-18T09:01:18.356Z,20.65
2023-05-18T09:03:49.198Z,21.55
2023-05-18T09:06:16.476Z,21.86
2023-05-18T09:08:43.370Z,21.83
2023-05-18T09:11:11.290Z,22.17
2023-05-18T09:13:38.765Z,21.75
2023-05-18T09:16:07.798Z,20.69
2023-05-18T09:18:34.549Z,20.40
2023-05-18T09:21:01.517Z,19.96
2023-05-18T09:23:28.547Z,20.33
2023-05-18T09:25:55.876Z,19.86
2023-05-18T09:28:37.136Z,19.79
2023-05-18T09:31:05.383Z,20.18
2023-05-18T09:33:40.065Z,20.23
2023-05-18T09:36:11.134Z,19.97
2023-05-18T09:38:39.210Z,20.80
2023-05-18T09:41:17.376Z,21.66
2023-05-18T09:43:46.305Z,22.59
2023-05-18T09:46:14.247Z,23.76
2023-05-18T09:48:44.201Z,22.54
2023-05-18T09:51:16.176Z,21.59
2023-05-18T09:53:47.364Z,22.02
2023-05-18T09:56:17.703Z,22.80
2023-05-18T09:58:45.853Z,22.73
2023-05-18T10:01:12.529Z,22.68
2023-05-18T10:03:39.317Z,22.52
2023-05-18T10:06:13.243Z,22.37
2023-05-18T10:08:40.984Z,22.96
2023-05-18T10:11:08.148Z,21.99
2023-05-18T10:13:35.418Z,21.25
2023-05-18T10:16:04.812Z,22.38
2023-05-18T10:18:35.269Z,21.62
2023-05-18T10:21:04.257Z,21.71
2023-05-18T10:23:32.271Z,21.82
2023-05-18T10:25:59.852Z,23.35
2023-05-18T10:28:30.761Z,23.00
2023-05-18T10:30:59.543Z,23.70
2023-05-18T10:33:30.585Z,24.02
2023-05-18T10:35:58.433Z,23.29
2023-05-18T10:38:26.951Z,24.50
2023-05-18T10:40:55.719Z,23.13
2023-05-18T10:43:27.177Z,23.55
2023-05-18T10:45:57.097Z,22.02
2023-05-18T10:48:25.018Z,23.27
2023-05-18T10:50:54.352Z,23.22
2023-05-18T10:53:23.327Z,22.39
2023-05-18T10:55:51.574Z,21.78
2023-05-18T10:58:20.099Z,21.85
2023-05-18T11:00:51.225Z,19.70
2023-05-18T11:03:19.881Z,19.94
2023-05-18T11:06:03.014Z,22.34
2023-05-18T11:08:30.086Z,22.46
2023-05-18T11:11:04.936Z,23.74
2023-05-18T11:13:33.017Z,23.60
2023-05-18T11:16:00.044Z,22.79
2023-05-18T11:18:34.681Z,21.80
2023-05-18T11:21:01.572Z,21.52
2023-05-18T11:23:32.672Z,20.99
2023-05-18T11:26:05.509Z,21.60
2023-05-18T11:28:33.568Z,20.30
2023-05-18T11:31:00.743Z,20.86
2023-05-18T11:33:32.445Z,20.22
2023-05-18T11:36:13.395Z,21.15
2023-05-18T11:38:55.853Z,21.34
2023-05-18T11:41:46.817Z,20.25
2023-05-18T11:44:16.764Z,20.39
2023-05-18T11:47:04.792Z,21.42
2023-05-18T11:49:43.593Z,21.46
2023-05-18T11:52:22.510Z,22.36
2023-05-18T11:54:54.027Z,20.94
2023-05-18T11:57:24.599Z,22.34
2023-05-18T11:59:56.583Z,22.29
2023-05-18T12:02:28.316Z,22.01
2023-05-18T12:04:57.282Z,21.56
2023-05-18T12:07:28.356Z,21.63
2023-05-18T12:09:59.810Z,22.24
2023-05-18T12:12:27.576Z,21.63
2023-05-18T12:14:58.740Z,21.40
2023-05-18T12:17:46.434Z,19.65
2023-05-18T12:20:25.130Z,18.90
2023-05-18T12:22:54.126Z,19.86
2023-05-18T12:25:23.809Z,20.88
2023-05-18T12:27:52.093Z,21.29
2023-05-18T12:30:21.508Z,20.97
2023-05-18T12:32:53.089Z,20.93
2023-05-18T12:35:26.765Z,21.94
2023-05-18T12:37:58.055Z,21.71
2023-05-18T12:40:25.213Z,21.54
2023-05-18T12:43:05.287Z,22.46
2023-05-18T12:45:34.237Z,21.42
2023-05-18T12:48:09.253Z,21.75
2023-05-18T12:50:37.161Z,21.94
2023-05-18T12:53:03.780Z,22.44
2023-05-18T12:55:32.705Z,22.61
2023-05-18T12:58:15.668Z,22.40
2023-05-18T13:00:46.517Z,21.74
2023-05-18T13:03:16.743Z,21.21
2023-05-18T13:05:45.814Z,21.38
2023-05-18T13:08:19.139Z,20.11
2023-05-18T13:10:45.856Z,21.71
2023-05-18T13:13:16.256Z,19.67
2023-05-18T13:15:43.645Z,19.25
2023-05-18T13:18:11.776Z,19.27
2023-05-18T13:20:44.371Z,20.19
2023-05-18T13:23:13.789Z,22.11
2023-05-18T13:25:41.989Z,22.48
2023-05-18T13:28:12.354Z,22.71
2023-05-18T13:30:42.081Z,22.11
2023-05-18T13:33:08.951Z,21.54
2023-05-18T13:35:36.538Z,21.47
2023-05-18T13:38:03.340Z,21.47
2023-05-18T13:40:30.216Z,21.44
2023-05-18T13:42:56.813Z,22.11
2023-05-18T13:45:23.613Z,21.24
2023-05-18T13:47:51.702Z,20.99
2023-05-18T13:50:19.118Z,22.15
2023-05-18T13:52:47.408Z,22.67
2023-05-18T13:55:14.219Z,22.19
2023-05-18T13:57:41.740Z,22.67
2023-05-18T14:00:12.805Z,22.11
2023-05-18T14:02:44.214Z,21.19
2023-05-18T14:05:11.232Z,22.29
2023-05-18T14:07:38.627Z,22.00
2023-05-18T14:10:05.551Z,21.70
2023-05-18T14:12:32.989Z,20.64
2023-05-18T14:15:00.039Z,20.79
2023-05-18T14:17:27.529Z,21.44
2023-05-18T14:19:54.411Z,21.31
2023-05-18T14:22:21.950Z,22.91
2023-05-18T14:24:49.234Z,22.69
2023-05-18T14:27:16.095Z,22.74
2023-05-18T14:29:42.621Z,23.10
2023-05-18T14:32:09.138Z,22.88
2023-05-18T14:34:35.770Z,22.06
2023-05-18T14:37:02.343Z,22.24
2023-05-18T14:39:28.925Z,21.76
2023-05-18T14:41:55.821Z,21.84
2023-05-18T14:44:22.499Z,21.32
2023-05-18T14:46:49.563Z,21.16
2023-05-18T14:49:16.116Z,21.61
2023-05-18T14:51:42.586Z,21.40
2023-05-18T14:54:09.117Z,21.51
2023-05-18T14:56:35.756Z,21.49
2023-05-18T14:59:02.272Z,20.93
2023-05-18T15:01:28.829Z,22.06
2023-05-18T15:03:55.548Z,22.18
2023-05-18T15:06:22.278Z,21.12
2023-05-18T15:08:48.865Z,21.48
2023-05-18T15:11:15.548Z,21.97
2023-05-18T15:13:42.498Z,23.38
2023-05-18T15:16:09.889Z,22.76
2023-05-18T15:21:02.962Z,22.23
2023-05-18T15:23:29.482Z,22.26
2023-05-18T15:25:56.136Z,22.07
2023-05-18T15:28:22.633Z,20.84
2023-05-18T15:30:49.156Z,21.68
2023-05-18T15:33:15.945Z,22.73
2023-05-18T15:35:42.584Z,22.49
2023-05-18T15:38:09.693Z,22.60
2023-05-18T15:40:36.522Z,21.62
2023-05-18T15:43:03.764Z,21.46
2023-05-18T15:45:30.549Z,21.87
2023-05-18T15:47:57.073Z,20.87
2023-05-18T15:50:23.874Z,21.63
2023-05-18T15:52:50.999Z,22.09
2023-05-18T15:55:20.900Z,21.63
2023-05-18T15:57:47.428Z,22.45
2023-05-18T16:00:15.346Z,21.58
2023-05-18T16:02:41.908Z,21.25
2023-05-18T16:05:08.618Z,22.86
2023-05-18T16:07:35.400Z,22.36
2023-05-18T16:10:01.964Z,21.97
2023-05-18T16:12:28.738Z,21.41
2023-05-18T16:14:55.317Z,21.15
2023-05-18T16:17:22.412Z,21.90
2023-05-18T16:19:48.908Z,21.83
2023-05-18T16:22:15.398Z,21.51
2023-05-18T16:24:42.315Z,20.77
2023-05-18T16:27:08.815Z,21.77
2023-05-18T16:29:35.371Z,21.67
2023-05-18T16:32:01.980Z,21.60
2023-05-18T16:34:28.650Z,21.19
2023-05-18T16:36:56.152Z,21.72
2023-05-18T16:39:24.094Z,22.04
2023-05-18T16:41:51.836Z,22.42
2023-05-18T16:44:18.364Z,22.52
2023-05-18T16:46:45.025Z,22.43
2023-05-18T16:49:11.604Z,22.45
2023-05-18T16:51:38.433Z,23.75
2023-05-18T16:54:06.819Z,23.04
2023-05-18T16:56:34.414Z,22.85
2023-05-18T16:59:01.373Z,22.55
2023-05-18T17:01:29.200Z,22.85
2023-05-18T17:03:56.543Z,24.15
2023-05-18T17:06:23.575Z,23.69
2023-05-18T17:08:57.140Z,22.90
2023-05-18T17:11:25.996Z,23.35
2023-05-18T17:13:52.584Z,23.73
2023-05-18T17:16:20.268Z,24.43
2023-05-18T17:18:47.018Z,24.17
2023-05-18T17:21:13.766Z,24.05
2023-05-18T17:23:40.293Z,23.96
2023-05-18T17:26:07.005Z,24.50
2023-05-18T17:28:34.023Z,23.83
2023-05-18T17:31:00.648Z,24.59
2023-05-18T17:33:27.371Z,24.46
2023-05-18T17:35:54.429Z,23.87
2023-05-18T17:38:22.552Z,24.19
2023-05-18T17:40:49.188Z,24.60
2023-05-18T17:43:15.790Z,23.83
2023-05-18T17:45:42.385Z,24.10
2023-05-18T17:48:09.145Z,23.80
2023-05-18T17:50:37.765Z,23.84
2023-05-18T17:53:04.884Z,23.89
2023-05-18T17:55:31.944Z,24.48
2023-05-18T17:58:01.154Z,24.58
2023-05-18T18:00:27.924Z,24.06
2023-05-18T18:02:55.849Z,24.88
2023-05-18T18:05:22.611Z,24.67
2023-05-18T18:07:50.866Z,24.19
2023-05-18T18:10:17.652Z,23.92
2023-05-18T18:12:44.376Z,24.35
2023-05-18T18:15:11.740Z,24.90
2023-05-18T18:17:38.554Z,24.33
2023-05-18T18:20:08.062Z,24.67
2023-05-18T18:22:36.021Z,24.21
2023-05-18T18:25:03.361Z,24.29
2023-05-18T18:27:30.333Z,24.84
2023-05-18T18:29:57.202Z,25.41
2023-05-18T18:32:23.956Z,24.97
2023-05-18T18:34:51.126Z,24.94
2023-05-18T18:37:18.335Z,24.83
2023-05-18T18:39:45.336Z,25.22
2023-05-18T18:42:12.595Z,25.00
2023-05-18T18:44:39.432Z,24.96
2023-05-18T18:47:06.365Z,24.93
2023-05-18T18:49:33.184Z,25.33
2023-05-18T18:51:59.944Z,25.22
2023-05-18T18:54:27.044Z,25.53
2023-05-18T18:56:54.127Z,25.22
2023-05-18T18:59:20.890Z,24.63
2023-05-18T19:01:47.636Z,25.01
2023-05-18T19:04:14.498Z,25.90
2023-05-18T19:06:42.598Z,25.51
2023-05-18T19:09:09.315Z,25.72
2023-05-18T19:11:36.796Z,25.20
2023-05-18T19:14:04.503Z,24.83
2023-05-18T19:16:32.873Z,24.78
2023-05-18T19:18:59.918Z,24.86
2023-05-18T19:21:26.840Z,25.15
2023-05-18T19:23:53.613Z,24.65
2023-05-18T19:26:21.553Z,24.44
2023-05-18T19:28:48.278Z,24.74
2023-05-18T19:31:15.242Z,24.96
2023-05-18T19:33:42.803Z,24.84
2023-05-18T19:36:11.222Z,24.38
2023-05-18T19:38:38.000Z,24.63
2023-05-18T19:41:04.805Z,24.37
2023-05-18T19:43:31.667Z,24.56
2023-05-18T19:45:58.859Z,24.47
2023-05-18T19:48:25.650Z,25.01
2023-05-18T19:50:52.803Z,24.90
2023-05-18T19:53:20.500Z,24.99
2023-05-18T19:55:48.877Z,24.67
2023-05-18T19:58:15.966Z,24.73
2023-05-18T20:00:42.764Z,25.46
2023-05-18T20:03:09.578Z,25.38
2023-05-18T20:05:39.046Z,25.79
2023-05-18T20:08:07.463Z,26.06
2023-05-18T20:10:34.374Z,25.81
2023-05-18T20:13:01.721Z,26.27
2023-05-18T20:15:30.369Z,26.02
2023-05-18T20:17:57.137Z,25.84
2023-05-18T20:20:30.536Z,26.44
2023-05-18T20:22:57.629Z,26.47
2023-05-18T20:25:26.600Z,26.67
2023-05-18T20:27:57.120Z,26.23
2023-05-18T20:30:23.926Z,26.75
2023-05-18T20:32:50.736Z,26.02
2023-05-18T20:35:17.933Z,26.17
2023-05-18T20:37:45.300Z,26.13
2023-05-18T20:40:13.824Z,26.61
2023-05-18T20:42:41.009Z,27.31
2023-05-18T20:45:09.191Z,27.51
2023-05-18T20:47:35.988Z,26.60
2023-05-18T20:50:03.253Z,27.08
2023-05-18T20:52:30.124Z,27.05
2023-05-18T20:54:57.049Z,26.56
2023-05-18T20:57:23.763Z,27.60
2023-05-18T20:59:51.545Z,27.37
2023-05-18T21:02:19.545Z,28.30
2023-05-18T21:04:48.848Z,27.65
2023-05-18T21:07:16.519Z,27.96
2023-05-18T21:09:43.295Z,27.80
2023-05-18T21:12:09.974Z,28.08
2023-05-18T21:14:36.661Z,28.24
2023-05-18T21:17:03.389Z,28.05
2023-05-18T21:19:30.556Z,27.92
2023-05-18T21:21:58.031Z,27.92
2023-05-18T21:24:24.655Z,28.51
2023-05-18T21:26:51.350Z,27.97
2023-05-18T21:29:18.087Z,27.89
2023-05-18T21:31:44.791Z,28.08
2023-05-18T21:34:11.872Z,28.58
2023-05-18T21:36:38.539Z,28.83
2023-05-18T21:39:05.975Z,29.08
2023-05-18T21:41:35.367Z,28.99
2023-05-18T21:44:02.152Z,29.73
2023-05-18T21:46:28.845Z,29.52
2023-05-18T21:48:58.869Z,30.24
2023-05-18T21:51:25.723Z,29.80
2023-05-18T21:53:52.625Z,29.94
2023-05-18T21:56:19.986Z,30.01
2023-05-18T21:58:46.563Z,30.84
2023-05-18T22:01:13.174Z,30.97
2023-05-18T22:03:40.194Z,30.24
2023-05-18T22:06:07.065Z,30.50
2023-05-18T22:08:33.669Z,29.86
2023-05-18T22:11:00.295Z,30.00
2023-05-18T22:13:30.475Z,30.25
2023-05-18T22:15:57.440Z,30.07
2023-05-18T22:18:26.831Z,29.93
2023-05-18T22:20:55.096Z,29.73
2023-05-18T22:23:22.331Z,30.01
2023-05-18T22:25:49.584Z,29.69
2023-05-18T22:28:21.384Z,30.46
2023-05-18T22:30:49.044Z,30.00
2023-05-18T22:33:16.894Z,30.49
2023-05-18T22:35:44.177Z,30.10
2023-05-18T22:38:11.761Z,30.52
2023-05-18T22:40:38.538Z,30.77
2023-05-18T22:43:06.042Z,31.62
2023-05-18T22:45:33.518Z,31.31
2023-05-18T22:48:01.390Z,31.09
2023-05-18T22:50:28.668Z,30.80
2023-05-18T22:52:55.743Z,31.13
2023-05-18T22:55:22.340Z,31.64
2023-05-18T22:57:48.936Z,32.07
2023-05-18T23:00:16.482Z,31.88
2023-05-18T23:02:43.123Z,31.32
2023-05-18T23:05:10.225Z,31.30
2023-05-18T23:07:37.638Z,32.03
2023-05-18T23:10:05.875Z,32.29
2023-05-18T23:12:33.505Z,33.20
2023-05-18T23:15:02.549Z,32.47
2023-05-18T23:17:32.595Z,32.03
2023-05-18T23:20:02.849Z,32.26
2023-05-18T23:22:29.422Z,32.14
2023-05-18T23:24:56.571Z,31.53
2023-05-18T23:27:23.535Z,31.72
2023-05-18T23:29:52.709Z,32.27
2023-05-18T23:32:19.921Z,31.49
2023-05-18T23:34:46.884Z,30.46
2023-05-18T23:37:18.502Z,30.76
2023-05-18T23:39:46.245Z,31.02
2023-05-18T23:42:14.215Z,30.57
2023-05-18T23:44:41.147Z,31.23
2023-05-18T23:47:08.110Z,30.76
2023-05-18T23:49:34.929Z,30.49
2023-05-18T23:52:02.694Z,31.05
2023-05-18T23:54:30.003Z,31.81
2023-05-18T23:56:58.072Z,31.85
2023-05-18T23:59:25.188Z,30.77
